Time;durP1;ratioP1;P1;durP2;ratioP2;P2;SDS_P1;SDS_P2;PMS_P1;PMS_P2;Temp;Humidity;BMP_temperature;BMP_pressure;BME280_temperature;BME280_humidity;BME280_pressure;Samples;Min_cycle;Max_cycle;Signal;HPM_P1;HPM_P2
2023/09/21 00:01:33;;;;;;;293.45;81.20;;;;;;;;;;5063068;28;20070;-57
2023/09/21 00:04:00;;;;;;;358.85;88.15;;;;;;;;;;5060242;28;20070;-55
2023/09/21 00:06:26;;;;;;;294.35;88.25;;;;;;;;;;5065303;28;20029;-57
2023/09/21 00:08:51;;;;;;;347.45;91.60;;;;;;;;;;5066276;28;20065;-57
2023/09/21 00:11:17;;;;;;;509.25;100.78;;;;;;;;;;5064762;28;20097;-56
2023/09/21 00:13:42;;;;;;;334.13;93.15;;;;;;;;;;5065729;28;20016;-56
2023/09/21 00:16:11;;;;;;;483.58;100.18;;;;;;;;;;5063591;28;20048;-56
2023/09/21 00:18:38;;;;;;;372.45;95.65;;;;;;;;;;5068068;28;20047;-57
2023/09/21 00:21:06;;;;;;;385.20;98.28;;;;;;;;;;5063249;28;20094;-57
2023/09/21 00:23:31;;;;;;;382.50;96.53;;;;;;;;;;5064182;28;20025;-55
2023/09/21 00:26:00;;;;;;;359.77;96.80;;;;;;;;;;5065212;28;20031;-55
2023/09/21 00:28:27;;;;;;;336.00;97.10;;;;;;;;;;5066407;28;20331;-54
2023/09/21 00:30:54;;;;;;;368.40;98.18;;;;;;;;;;5066500;28;20024;-56
2023/09/21 00:33:20;;;;;;;357.75;98.78;;;;;;;;;;5064875;28;21603;-56
2023/09/21 00:35:46;;;;;;;364.45;99.93;;;;;;;;;;5064821;28;20111;-57
2023/09/21 00:38:14;;;;;;;540.30;108.55;;;;;;;;;;5064161;28;20607;-56
2023/09/21 00:40:39;;;;;;;355.70;98.55;;;;;;;;;;5052188;28;20075;-56
2023/09/21 00:43:06;;;;;;;458.30;103.40;;;;;;;;;;5063438;28;20470;-56
2023/09/21 00:45:33;;;;;;;369.35;100.30;;;;;;;;;;5065690;28;20037;-56
2023/09/21 00:47:59;;;;;;;343.20;101.68;;;;;;;;;;5049156;28;20009;-55
2023/09/21 00:50:24;;;;;;;345.55;100.93;;;;;;;;;;5063799;28;20034;-56
2023/09/21 00:52:53;;;;;;;428.05;103.18;;;;;;;;;;5064399;28;20047;-56
2023/09/21 00:55:25;;;;;;;506.25;108.85;;;;;;;;;;5063351;28;20052;-56
2023/09/21 00:58:00;;;;;;;377.70;102.65;;;;;;;;;;5065308;28;20059;-57
2023/09/21 01:00:26;;;;;;;343.65;100.72;;;;;;;;;;5061975;28;20519;-56
2023/09/21 01:02:53;;;;;;;387.42;104.55;;;;;;;;;;5063895;28;20141;-56
2023/09/21 01:05:21;;;;;;;518.33;110.18;;;;;;;;;;5063049;28;20584;-56
2023/09/21 01:07:48;;;;;;;350.58;102.72;;;;;;;;;;5065987;28;20074;-56
2023/09/21 01:10:13;;;;;;;443.65;106.43;;;;;;;;;;5061456;28;20020;-56
2023/09/21 01:12:44;;;;;;;425.45;106.72;;;;;;;;;;5063215;28;20039;-56
2023/09/21 01:15:09;;;;;;;522.58;112.13;;;;;;;;;;5059679;28;20044;-57
2023/09/21 01:17:35;;;;;;;358.30;105.15;;;;;;;;;;5063239;28;20016;-55
2023/09/21 01:20:02;;;;;;;393.55;103.88;;;;;;;;;;5064544;28;20024;-56
2023/09/21 01:22:29;;;;;;;313.75;87.95;;;;;;;;;;5062643;28;20036;-55
2023/09/21 01:24:54;;;;;;;325.25;93.70;;;;;;;;;;5064014;28;20504;-57
2023/09/21 01:27:20;;;;;;;537.05;104.60;;;;;;;;;;5059575;28;20020;-56
2023/09/21 01:29:46;;;;;;;360.05;97.35;;;;;;;;;;5064402;28;20013;-55
2023/09/21 01:32:12;;;;;;;509.23;106.07;;;;;;;;;;5039780;28;20086;-57
2023/09/21 01:34:37;;;;;;;375.27;100.63;;;;;;;;;;5060206;28;20044;-57
2023/09/21 01:37:02;;;;;;;346.13;88.50;;;;;;;;;;5062875;28;20413;-57
2023/09/21 01:39:28;;;;;;;307.13;90.97;;;;;;;;;;5064719;28;20611;-54
2023/09/21 01:41:54;;;;;;;376.52;95.78;;;;;;;;;;5063751;28;20131;-56
2023/09/21 01:44:22;;;;;;;473.25;103.70;;;;;;;;;;5062291;28;20174;-56
2023/09/21 01:46:48;;;;;;;364.63;100.90;;;;;;;;;;5062561;28;20111;-56
2023/09/21 01:49:14;;;;;;;558.40;112.95;;;;;;;;;;5063946;28;20032;-55
2023/09/21 01:51:39;;;;;;;337.67;89.53;;;;;;;;;;5063981;28;20461;-56
2023/09/21 01:54:06;;;;;;;282.83;82.55;;;;;;;;;;5062138;28;20024;-57
2023/09/21 01:56:33;;;;;;;344.52;90.88;;;;;;;;;;5062644;28;20024;-57
2023/09/21 01:58:58;;;;;;;313.77;85.65;;;;;;;;;;5064920;28;20127;-56
2023/09/21 02:01:23;;;;;;;472.95;94.93;;;;;;;;;;5046087;28;20524;-56
2023/09/21 02:03:49;;;;;;;386.30;94.18;;;;;;;;;;5063429;28;20024;-57
2023/09/21 02:06:15;;;;;;;450.67;91.90;;;;;;;;;;5063412;28;20040;-56
2023/09/21 02:08:40;;;;;;;306.88;84.50;;;;;;;;;;5063787;28;20468;-55
2023/09/21 02:11:05;;;;;;;319.85;84.47;;;;;;;;;;5065079;28;20069;-55
2023/09/21 02:13:31;;;;;;;317.73;90.57;;;;;;;;;;5058828;28;20012;-55
2023/09/21 02:15:56;;;;;;;291.10;88.65;;;;;;;;;;5061359;28;20682;-56
2023/09/21 02:18:21;;;;;;;426.43;100.67;;;;;;;;;;5061157;28;20074;-56
2023/09/21 02:20:50;;;;;;;363.73;99.20;;;;;;;;;;5062839;28;20309;-56
2023/09/21 02:23:15;;;;;;;492.98;105.03;;;;;;;;;;5063816;28;20310;-55
2023/09/21 02:25:41;;;;;;;357.60;95.57;;;;;;;;;;5060263;28;20056;-55
2023/09/21 02:28:11;;;;;;;379.15;103.00;;;;;;;;;;5062442;28;20255;-57
2023/09/21 02:30:37;;;;;;;371.00;103.88;;;;;;;;;;5060576;28;20028;-56
2023/09/21 02:33:04;;;;;;;408.40;106.38;;;;;;;;;;5063573;28;20020;-56
2023/09/21 02:35:31;;;;;;;334.35;104.07;;;;;;;;;;5062189;28;20028;-56
2023/09/21 02:37:57;;;;;;;366.08;106.15;;;;;;;;;;5063663;28;20163;-57
2023/09/21 02:40:23;;;;;;;525.20;114.57;;;;;;;;;;5061315;28;20143;-56
2023/09/21 02:42:50;;;;;;;378.92;106.43;;;;;;;;;;5064561;28;20278;-55
2023/09/21 02:45:21;;;;;;;491.90;114.35;;;;;;;;;;5060883;28;20030;-55
2023/09/21 02:47:47;;;;;;;394.50;108.82;;;;;;;;;;5065171;28;20417;-55
2023/09/21 02:50:15;;;;;;;424.58;110.78;;;;;;;;;;5060894;28;20066;-54
2023/09/21 02:52:46;;;;;;;406.98;108.50;;;;;;;;;;5064011;28;20016;-56
2023/09/21 02:55:12;;;;;;;408.83;105.20;;;;;;;;;;5060427;28;20024;-57
2023/09/21 02:57:38;;;;;;;359.73;104.85;;;;;;;;;;5063621;28;20630;-58
2023/09/21 03:00:11;;;;;;;331.15;104.55;;;;;;;;;;5061700;28;20226;-57
2023/09/21 03:02:37;;;;;;;385.20;109.63;;;;;;;;;;5063992;28;20020;-54
2023/09/21 03:05:02;;;;;;;362.08;108.57;;;;;;;;;;5063924;28;20386;-54
2023/09/21 03:07:27;;;;;;;508.85;116.45;;;;;;;;;;5060536;28;20036;-55
2023/09/21 03:09:54;;;;;;;391.13;111.00;;;;;;;;;;5064719;28;20040;-54
2023/09/21 03:12:20;;;;;;;459.50;116.30;;;;;;;;;;5060664;28;20281;-55
2023/09/21 03:14:46;;;;;;;437.23;114.72;;;;;;;;;;5060448;28;20146;-55
2023/09/21 03:17:14;;;;;;;392.52;113.22;;;;;;;;;;5044537;28;20610;-54
2023/09/21 03:19:39;;;;;;;364.65;111.53;;;;;;;;;;5063368;28;20393;-55
2023/09/21 03:22:04;;;;;;;417.48;114.93;;;;;;;;;;5061947;28;20024;-55
2023/09/21 03:24:30;;;;;;;360.50;113.90;;;;;;;;;;5060551;28;20082;-55
2023/09/21 03:26:55;;;;;;;328.07;111.80;;;;;;;;;;5061958;28;20326;-55
2023/09/21 03:29:20;;;;;;;554.80;125.10;;;;;;;;;;5060586;28;20256;-54
2023/09/21 03:31:45;;;;;;;397.83;116.28;;;;;;;;;;5061254;28;20020;-55
2023/09/21 03:34:11;;;;;;;402.70;117.00;;;;;;;;;;5063754;28;20074;-55
2023/09/21 03:36:38;;;;;;;369.30;112.53;;;;;;;;;;5061376;28;20271;-54
2023/09/21 03:39:09;;;;;;;327.58;99.65;;;;;;;;;;5066071;28;20270;-55
2023/09/21 03:41:35;;;;;;;302.23;87.33;;;;;;;;;;5064940;28;20032;-55
2023/09/21 03:44:01;;;;;;;357.70;95.53;;;;;;;;;;5070075;28;20385;-58
2023/09/21 03:46:26;;;;;;;470.42;98.30;;;;;;;;;;5063266;28;20571;-57
2023/09/21 03:48:51;;;;;;;331.85;90.93;;;;;;;;;;5066609;28;20397;-57
2023/09/21 03:51:16;;;;;;;431.60;94.57;;;;;;;;;;5064178;28;20034;-56
2023/09/21 03:53:42;;;;;;;417.65;81.95;;;;;;;;;;5057125;28;20664;-54
2023/09/21 03:56:07;;;;;;;310.83;84.05;;;;;;;;;;5062051;28;20036;-54
2023/09/21 03:58:33;;;;;;;266.30;77.22;;;;;;;;;;5060806;28;20155;-55
2023/09/21 04:01:04;;;;;;;295.27;77.55;;;;;;;;;;5062207;28;20056;-56
2023/09/21 04:03:29;;;;;;;452.48;84.38;;;;;;;;;;5061163;28;20024;-55
2023/09/21 04:05:55;;;;;;;366.27;83.82;;;;;;;;;;5063545;28;20111;-56
2023/09/21 04:08:20;;;;;;;558.80;102.05;;;;;;;;;;5060552;28;20029;-56
2023/09/21 04:10:46;;;;;;;429.23;97.47;;;;;;;;;;5062909;28;20081;-56
2023/09/21 04:13:11;;;;;;;421.13;93.82;;;;;;;;;;5064827;28;20275;-56
2023/09/21 04:15:36;;;;;;;389.75;95.20;;;;;;;;;;5060039;28;20111;-57
2023/09/21 04:18:02;;;;;;;376.67;96.35;;;;;;;;;;5063374;28;20481;-57
2023/09/21 04:20:31;;;;;;;556.10;104.00;;;;;;;;;;5062653;28;20401;-55
2023/09/21 04:22:56;;;;;;;419.20;86.00;;;;;;;;;;5063978;28;20202;-58
2023/09/21 04:25:22;;;;;;;542.40;89.03;;;;;;;;;;5059938;28;20092;-58
2023/09/21 04:27:48;;;;;;;391.17;92.05;;;;;;;;;;5062398;28;20298;-56
2023/09/21 04:30:15;;;;;;;447.73;97.25;;;;;;;;;;5061898;28;20285;-56
2023/09/21 04:32:47;;;;;;;413.55;98.97;;;;;;;;;;5062541;28;20321;-56
2023/09/21 04:35:18;;;;;;;376.67;97.90;;;;;;;;;;5062272;28;20035;-56
2023/09/21 04:37:43;;;;;;;450.65;101.85;;;;;;;;;;5061669;28;20016;-54
2023/09/21 04:40:10;;;;;;;377.42;99.90;;;;;;;;;;5060748;28;20031;-55
2023/09/21 04:42:39;;;;;;;486.27;104.45;;;;;;;;;;5060230;28;20324;-56
2023/09/21 04:45:09;;;;;;;397.25;102.15;;;;;;;;;;5063116;28;20039;-56
2023/09/21 04:47:34;;;;;;;463.23;107.90;;;;;;;;;;5060627;28;20322;-56
2023/09/21 04:50:00;;;;;;;394.30;105.68;;;;;;;;;;5060584;28;20020;-56
2023/09/21 04:52:25;;;;;;;541.25;115.70;;;;;;;;;;5061948;28;20047;-54
2023/09/21 04:54:51;;;;;;;372.47;108.30;;;;;;;;;;5059559;28;20024;-55
2023/09/21 04:57:17;;;;;;;355.80;106.95;;;;;;;;;;5060596;28;20693;-55
2023/09/21 04:59:43;;;;;;;433.88;112.18;;;;;;;;;;5042242;28;20024;-55
2023/09/21 05:02:09;;;;;;;396.42;110.80;;;;;;;;;;5063058;28;20039;-55
2023/09/21 05:04:35;;;;;;;551.35;119.95;;;;;;;;;;5059838;28;20020;-55
2023/09/21 05:07:00;;;;;;;464.70;115.00;;;;;;;;;;5062826;28;20093;-55
2023/09/21 05:09:25;;;;;;;613.27;123.60;;;;;;;;;;5059848;28;20397;-56
2023/09/21 05:11:53;;;;;;;448.13;112.23;;;;;;;;;;5062433;28;20876;-56
2023/09/21 05:14:19;;;;;;;474.70;118.03;;;;;;;;;;5058611;28;20388;-55
2023/09/21 05:16:44;;;;;;;460.40;117.22;;;;;;;;;;5061885;28;20020;-54
2023/09/21 05:19:11;;;;;;;442.05;113.20;;;;;;;;;;5060678;28;20561;-56
2023/09/21 05:21:36;;;;;;;523.30;118.70;;;;;;;;;;5059695;28;20524;-56
2023/09/21 05:24:01;;;;;;;403.25;111.88;;;;;;;;;;5062139;28;20027;-56
2023/09/21 05:26:26;;;;;;;450.58;116.40;;;;;;;;;;5059010;28;20037;-57
2023/09/21 05:28:52;;;;;;;441.53;112.80;;;;;;;;;;5062706;28;20016;-57
2023/09/21 05:31:17;;;;;;;411.25;110.35;;;;;;;;;;5060096;28;20298;-56
2023/09/21 05:33:43;;;;;;;380.20;108.27;;;;;;;;;;5060856;28;20039;-58
2023/09/21 05:36:08;;;;;;;393.13;108.20;;;;;;;;;;5060284;28;20267;-56
2023/09/21 05:38:33;;;;;;;447.40;112.30;;;;;;;;;;5061527;28;20020;-55
2023/09/21 05:41:06;;;;;;;376.38;108.15;;;;;;;;;;5059871;28;20550;-56
2023/09/21 05:43:31;;;;;;;548.80;116.70;;;;;;;;;;5060948;28;20402;-57
2023/09/21 05:45:57;;;;;;;408.95;108.55;;;;;;;;;;5060928;28;20505;-59
2023/09/21 05:48:22;;;;;;;472.97;110.87;;;;;;;;;;5060133;28;20462;-57
2023/09/21 05:50:48;;;;;;;472.38;110.93;;;;;;;;;;5060377;28;20666;-56
2023/09/21 05:53:13;;;;;;;454.85;111.07;;;;;;;;;;5062336;28;20433;-58
2023/09/21 05:55:38;;;;;;;641.80;120.57;;;;;;;;;;5058214;28;20032;-58
2023/09/21 05:58:04;;;;;;;422.23;111.30;;;;;;;;;;5059630;28;20044;-57
2023/09/21 06:00:30;;;;;;;551.35;118.78;;;;;;;;;;5058644;28;20032;-57
2023/09/21 06:02:55;;;;;;;460.33;112.50;;;;;;;;;;5060033;28;20020;-56
2023/09/21 06:05:21;;;;;;;440.93;112.33;;;;;;;;;;5059487;28;20493;-55
2023/09/21 06:07:46;;;;;;;519.58;114.72;;;;;;;;;;5058512;28;20353;-55
2023/09/21 06:10:11;;;;;;;435.63;110.90;;;;;;;;;;5062056;28;20401;-56
2023/09/21 06:12:37;;;;;;;496.05;99.88;;;;;;;;;;5059095;28;21020;-55
2023/09/21 06:15:05;;;;;;;366.15;84.80;;;;;;;;;;5059178;28;20086;-56
2023/09/21 06:17:31;;;;;;;391.45;87.00;;;;;;;;;;5059620;28;20127;-57
2023/09/21 06:19:56;;;;;;;411.10;83.53;;;;;;;;;;5056068;28;20128;-55
2023/09/21 06:22:21;;;;;;;344.00;78.50;;;;;;;;;;5057111;28;20290;-57
2023/09/21 06:24:46;;;;;;;381.02;79.70;;;;;;;;;;5052203;28;20346;-55
2023/09/21 06:27:13;;;;;;;503.98;84.47;;;;;;;;;;5050722;28;20043;-58
2023/09/21 06:29:38;;;;;;;519.33;94.95;;;;;;;;;;5052949;28;20035;-58
2023/09/21 06:32:07;;;;;;;382.58;90.50;;;;;;;;;;5058870;28;20048;-59
2023/09/21 06:34:33;;;;;;;543.00;98.90;;;;;;;;;;5056911;28;20082;-58
2023/09/21 06:36:58;;;;;;;467.42;93.68;;;;;;;;;;5057245;28;20911;-59
2023/09/21 06:39:23;;;;;;;414.20;91.80;;;;;;;;;;5057778;28;20169;-60
2023/09/21 06:41:49;;;;;;;452.90;92.22;;;;;;;;;;5057576;28;20123;-59
2023/09/21 06:44:18;;;;;;;464.83;88.30;;;;;;;;;;5011356;28;20147;-60
2023/09/21 06:46:43;;;;;;;399.60;86.72;;;;;;;;;;5024540;28;20025;-59
2023/09/21 06:49:09;;;;;;;301.15;81.47;;;;;;;;;;5036331;28;20020;-58
2023/09/21 06:51:34;;;;;;;452.27;84.32;;;;;;;;;;5030761;28;20033;-58
2023/09/21 06:54:00;;;;;;;286.37;78.77;;;;;;;;;;5035818;28;20267;-58
2023/09/21 06:56:29;;;;;;;303.27;79.50;;;;;;;;;;5033407;28;20036;-59
2023/09/21 06:58:55;;;;;;;383.20;83.32;;;;;;;;;;5032882;28;20025;-59
2023/09/21 07:01:21;;;;;;;320.73;75.97;;;;;;;;;;5033681;28;20095;-60
2023/09/21 07:03:48;;;;;;;368.48;72.80;;;;;;;;;;5031886;28;20488;-60
2023/09/21 07:06:14;;;;;;;397.42;73.15;;;;;;;;;;5033627;28;20043;-59
2023/09/21 07:08:39;;;;;;;410.02;58.30;;;;;;;;;;5033239;28;20103;-58
2023/09/21 07:11:05;;;;;;;426.80;228.80;;;;;;;;;;5032878;28;20059;-60
2023/09/21 07:13:31;;;;;;;409.13;40.53;;;;;;;;;;5030950;28;20437;-61
2023/09/21 07:15:58;;;;;;;313.00;69.75;;;;;;;;;;5030857;28;20546;-60
2023/09/21 07:18:25;;;;;;;293.00;35.95;;;;;;;;;;5034450;28;20063;-60
2023/09/21 07:20:50;;;;;;;306.67;36.75;;;;;;;;;;5031886;28;20102;-60
2023/09/21 07:23:15;;;;;;;315.37;60.30;;;;;;;;;;5034482;28;20041;-61
2023/09/21 07:25:40;;;;;;;404.33;41.57;;;;;;;;;;5031718;28;20606;-60
2023/09/21 07:28:06;;;;;;;391.93;155.90;;;;;;;;;;5034300;28;20100;-60
2023/09/21 07:30:32;;;;;;;397.23;102.60;;;;;;;;;;5032890;28;20279;-62
2023/09/21 07:32:58;;;;;;;227.25;47.10;;;;;;;;;;5033805;28;20346;-60
2023/09/21 07:35:23;;;;;;;224.88;25.92;;;;;;;;;;5033313;28;20170;-60
2023/09/21 07:37:49;;;;;;;167.27;26.00;;;;;;;;;;5032710;28;20411;-60
2023/09/21 07:40:16;;;;;;;249.70;26.95;;;;;;;;;;5033504;28;20028;-61
2023/09/21 07:42:45;;;;;;;414.83;47.50;;;;;;;;;;5032000;28;20060;-62
2023/09/21 07:45:11;;;;;;;310.27;107.68;;;;;;;;;;5033407;28;20098;-60
2023/09/21 07:47:40;;;;;;;376.73;49.55;;;;;;;;;;5033721;28;20013;-61
2023/09/21 07:50:05;;;;;;;321.38;63.00;;;;;;;;;;5034848;28;20029;-62
2023/09/21 07:52:34;;;;;;;300.85;32.80;;;;;;;;;;5032875;28;20028;-60
2023/09/21 07:55:02;;;;;;;314.00;28.88;;;;;;;;;;5033361;28;20032;-60
2023/09/21 07:57:28;;;;;;;570.58;379.95;;;;;;;;;;5033167;28;20036;-59
2023/09/21 07:59:53;;;;;;;481.17;236.52;;;;;;;;;;5033068;28;20033;-59
2023/09/21 08:02:18;;;;;;;478.80;285.43;;;;;;;;;;5033150;28;20036;-59
2023/09/21 08:04:44;;;;;;;669.28;373.67;;;;;;;;;;5031754;28;20035;-59
2023/09/21 08:07:09;;;;;;;351.10;209.00;;;;;;;;;;5034063;28;20032;-59
2023/09/21 08:09:34;;;;;;;410.23;82.27;;;;;;;;;;5033099;28;20048;-59
2023/09/21 08:12:00;;;;;;;488.83;381.97;;;;;;;;;;5033441;28;20033;-59
2023/09/21 08:14:26;;;;;;;340.02;230.70;;;;;;;;;;5033526;28;20468;-59
2023/09/21 08:16:52;;;;;;;533.78;348.67;;;;;;;;;;5031361;28;20056;-59
2023/09/21 08:19:17;;;;;;;377.17;274.67;;;;;;;;;;5033265;28;20495;-59
2023/09/21 08:21:42;;;;;;;557.17;266.23;;;;;;;;;;5030846;28;20045;-59
2023/09/21 08:24:09;;;;;;;502.13;269.77;;;;;;;;;;5032810;28;20024;-59
2023/09/21 08:26:35;;;;;;;504.50;171.60;;;;;;;;;;5034965;28;20061;-59
2023/09/21 08:29:00;;;;;;;405.73;277.98;;;;;;;;;;5037137;28;20129;-57
2023/09/21 08:31:26;;;;;;;487.70;316.45;;;;;;;;;;5036734;28;20040;-60
2023/09/21 08:33:51;;;;;;;527.77;333.07;;;;;;;;;;5035726;28;20017;-58
2023/09/21 08:36:16;;;;;;;535.47;422.03;;;;;;;;;;5036705;28;20101;-58
2023/09/21 08:38:42;;;;;;;504.53;132.20;;;;;;;;;;5035155;28;20017;-58
2023/09/21 08:41:08;;;;;;;494.98;249.88;;;;;;;;;;5036855;28;20040;-59
2023/09/21 08:43:34;;;;;;;486.27;259.77;;;;;;;;;;5034484;28;20032;-58
2023/09/21 08:45:59;;;;;;;517.78;343.60;;;;;;;;;;5034969;28;20329;-59
2023/09/21 08:48:26;;;;;;;454.15;256.63;;;;;;;;;;5038094;28;20040;-58
2023/09/21 08:50:52;;;;;;;546.80;307.25;;;;;;;;;;5035008;28;20502;-58
2023/09/21 08:53:25;;;;;;;524.42;297.15;;;;;;;;;;5036907;28;20098;-58
2023/09/21 08:55:52;;;;;;;569.28;319.52;;;;;;;;;;5034244;28;20083;-59
2023/09/21 08:58:23;;;;;;;359.13;171.48;;;;;;;;;;5036474;28;20033;-59
2023/09/21 09:00:48;;;;;;;;;;;;;;;;;;5034759;28;20538;-58
2023/09/21 09:03:14;;;;;;;522.83;315.90;;;;;;;;;;5036710;28;20398;-59
2023/09/21 09:05:40;;;;;;;425.52;79.63;;;;;;;;;;5035497;28;20028;-59
2023/09/21 09:08:05;;;;;;;421.87;231.30;;;;;;;;;;5037310;28;20025;-58
2023/09/21 09:10:39;;;;;;;438.88;257.10;;;;;;;;;;5036463;28;20371;-58
2023/09/21 09:13:10;;;;;;;521.50;269.42;;;;;;;;;;5036256;28;20029;-58
2023/09/21 09:15:37;;;;;;;;;;;;;;;;;;5034947;28;20184;-59
2023/09/21 09:18:03;;;;;;;458.40;298.58;;;;;;;;;;5036087;28;20313;-57
2023/09/21 09:20:28;;;;;;;384.35;236.52;;;;;;;;;;5036137;28;20510;-58
2023/09/21 09:22:54;;;;;;;423.50;315.55;;;;;;;;;;5034962;28;20368;-58
2023/09/21 09:25:21;;;;;;;349.70;202.07;;;;;;;;;;5036540;28;20025;-57
2023/09/21 09:27:46;;;;;;;582.83;265.70;;;;;;;;;;5034375;28;20389;-57
2023/09/21 09:30:12;;;;;;;380.35;163.55;;;;;;;;;;5035940;28;20511;-57
2023/09/21 09:32:44;;;;;;;602.23;333.63;;;;;;;;;;5034423;28;20080;-58
2023/09/21 09:35:13;;;;;;;494.23;276.02;;;;;;;;;;5035410;28;20362;-57
2023/09/21 09:37:43;;;;;;;622.13;305.48;;;;;;;;;;5034662;28;20397;-58
2023/09/21 09:40:42;;;;;;;412.67;292.55;;;;;;;;;;5035826;28;20033;-58
2023/09/21 09:43:01;;;;;;;560.28;358.88;;;;;;;;;;5032063;28;20033;-60
2023/09/21 09:45:30;;;;;;;321.33;237.63;;;;;;;;;;5036279;28;20421;-61
2023/09/21 09:47:56;;;;;;;361.88;177.85;;;;;;;;;;5035685;28;20024;-59
2023/09/21 09:50:24;;;;;;;479.02;309.77;;;;;;;;;;5035765;28;20032;-60
2023/09/21 09:53:13;;;;;;;586.05;241.52;;;;;;;;;;5034066;28;20475;-60
2023/09/21 09:55:42;;;;;;;636.28;212.07;;;;;;;;;;5032821;28;20037;-59
2023/09/21 09:58:08;;;;;;;297.00;81.20;;;;;;;;;;5035963;28;20028;-60
2023/09/21 10:00:35;;;;;;;278.38;86.35;;;;;;;;;;5035554;28;20040;-59
2023/09/21 10:03:03;;;;;;;533.55;298.25;;;;;;;;;;5036013;28;20302;-60
2023/09/21 10:05:28;;;;;;;377.23;211.70;;;;;;;;;;5036147;28;20040;-58
2023/09/21 10:08:03;;;;;;;677.38;356.20;;;;;;;;;;5033718;28;20029;-58
2023/09/21 10:10:49;;;;;;;433.67;328.85;;;;;;;;;;5035356;28;20044;-57
2023/09/21 10:13:16;;;;;;;545.38;333.83;;;;;;;;;;5034669;28;20151;-57
2023/09/21 10:15:43;;;;;;;483.73;118.88;;;;;;;;;;5034129;28;20498;-58
2023/09/21 10:18:08;;;;;;;475.10;272.38;;;;;;;;;;5035992;28;20415;-56
2023/09/21 10:20:36;;;;;;;507.33;316.70;;;;;;;;;;5035367;28;20179;-58
2023/09/21 10:23:04;;;;;;;499.17;352.20;;;;;;;;;;5035198;28;20687;-58
2023/09/21 10:25:37;;;;;;;372.65;222.85;;;;;;;;;;5036295;28;20382;-58
2023/09/21 10:28:27;;;;;;;513.38;293.58;;;;;;;;;;5035834;28;20328;-59
2023/09/21 10:30:53;;;;;;;598.13;342.33;;;;;;;;;;5033604;28;20032;-58
2023/09/21 10:33:18;;;;;;;493.08;367.23;;;;;;;;;;5035984;28;20587;-57
2023/09/21 10:35:49;;;;;;;603.07;274.97;;;;;;;;;;5033465;28;20041;-59
2023/09/21 10:38:15;;;;;;;529.35;278.50;;;;;;;;;;5036122;28;20127;-59
2023/09/21 10:40:40;;;;;;;356.00;89.78;;;;;;;;;;5033959;28;20186;-59
2023/09/21 10:43:24;;;;;;;458.63;217.73;;;;;;;;;;5035885;28;20033;-59
2023/09/21 10:45:53;;;;;;;497.83;163.00;;;;;;;;;;5033941;28;20025;-59
2023/09/21 10:48:19;;;;;;;472.83;282.50;;;;;;;;;;5035620;28;20401;-57
2023/09/21 10:50:45;;;;;;;467.55;51.03;;;;;;;;;;5033091;28;20112;-58
2023/09/21 10:53:10;;;;;;;406.27;112.55;;;;;;;;;;5034438;28;20111;-60
2023/09/21 10:55:36;;;;;;;531.40;356.10;;;;;;;;;;5035981;28;20109;-60
2023/09/21 10:58:02;;;;;;;502.30;338.02;;;;;;;;;;5035937;28;20259;-58
2023/09/21 11:00:27;;;;;;;486.83;269.77;;;;;;;;;;5036774;28;20045;-58
2023/09/21 11:02:54;;;;;;;426.08;108.40;;;;;;;;;;5035576;28;20115;-59
2023/09/21 11:05:21;;;;;;;378.45;83.18;;;;;;;;;;5036356;28;20110;-59
2023/09/21 11:07:47;;;;;;;489.65;272.55;;;;;;;;;;5036269;28;20024;-59
2023/09/21 11:10:14;;;;;;;450.58;278.67;;;;;;;;;;5036552;28;20615;-59
2023/09/21 11:12:40;;;;;;;342.58;147.93;;;;;;;;;;5035107;28;20547;-58
2023/09/21 11:15:07;;;;;;;437.98;346.55;;;;;;;;;;5037229;28;20586;-59
2023/09/21 11:17:32;;;;;;;510.48;438.70;;;;;;;;;;5036240;28;20525;-60
2023/09/21 11:19:58;;;;;;;511.88;296.55;;;;;;;;;;5035912;28;20057;-59
2023/09/21 11:22:24;;;;;;;459.42;376.67;;;;;;;;;;5036124;28;20131;-58
2023/09/21 11:24:49;;;;;;;513.92;292.80;;;;;;;;;;5035140;28;20021;-59
2023/09/21 11:27:14;;;;;;;491.52;230.05;;;;;;;;;;5035697;28;20035;-60
2023/09/21 11:29:41;;;;;;;483.60;273.43;;;;;;;;;;5035668;28;20112;-59
2023/09/21 11:32:12;;;;;;;568.05;439.25;;;;;;;;;;5036769;28;20036;-60
2023/09/21 11:34:41;;;;;;;469.67;185.50;;;;;;;;;;5035557;28;20025;-59
2023/09/21 11:37:07;;;;;;;411.42;246.63;;;;;;;;;;5036083;28;20451;-60
2023/09/21 11:39:34;;;;;;;421.10;284.17;;;;;;;;;;5032971;28;20040;-57
2023/09/21 11:42:00;;;;;;;513.83;320.65;;;;;;;;;;5033992;28;20771;-57
2023/09/21 11:44:27;;;;;;;509.20;58.08;;;;;;;;;;5035556;28;20028;-59
2023/09/21 11:46:54;;;;;;;425.05;232.30;;;;;;;;;;5033774;28;20415;-56
2023/09/21 11:49:19;;;;;;;300.60;72.85;;;;;;;;;;5035322;28;20021;-59
2023/09/21 11:51:44;;;;;;;444.40;116.40;;;;;;;;;;5033941;28;20021;-59
2023/09/21 11:54:11;;;;;;;681.87;466.53;;;;;;;;;;5034866;28;20567;-58
2023/09/21 11:56:37;;;;;;;463.23;292.20;;;;;;;;;;5035236;28;20775;-58
2023/09/21 11:59:06;;;;;;;552.13;327.17;;;;;;;;;;5035158;28;20242;-58
2023/09/21 12:01:31;;;;;;;389.45;66.00;;;;;;;;;;5038654;28;20061;-58
2023/09/21 12:03:57;;;;;;;505.15;235.38;;;;;;;;;;5038507;28;20104;-59
2023/09/21 12:06:27;;;;;;;539.55;391.60;;;;;;;;;;5038987;28;20430;-58
2023/09/21 12:08:52;;;;;;;694.80;303.40;;;;;;;;;;5037409;28;20040;-58
2023/09/21 12:11:21;;;;;;;273.58;106.50;;;;;;;;;;5039461;28;20062;-59
2023/09/21 12:13:46;;;;;;;528.70;359.23;;;;;;;;;;5036386;28;20294;-58
2023/09/21 12:16:11;;;;;;;529.50;305.33;;;;;;;;;;5038804;28;20513;-57
2023/09/21 12:18:36;;;;;;;492.27;318.43;;;;;;;;;;5039596;28;20031;-58
2023/09/21 12:21:03;;;;;;;498.93;345.90;;;;;;;;;;5038308;28;20033;-57
2023/09/21 12:23:28;;;;;;;534.25;309.42;;;;;;;;;;5038739;28;20040;-58
2023/09/21 12:25:54;;;;;;;640.50;391.40;;;;;;;;;;5035952;28;20037;-59
2023/09/21 12:28:19;;;;;;;468.05;176.35;;;;;;;;;;5038527;28;20029;-59
2023/09/21 12:30:47;;;;;;;609.65;329.48;;;;;;;;;;5037069;28;20032;-58
2023/09/21 12:33:15;;;;;;;411.67;77.15;;;;;;;;;;5036938;28;20513;-59
2023/09/21 12:35:40;;;;;;;486.98;348.27;;;;;;;;;;5036122;28;20039;-59
2023/09/21 12:38:05;;;;;;;301.30;72.78;;;;;;;;;;5038022;28;20021;-58
2023/09/21 12:40:31;;;;;;;635.80;510.02;;;;;;;;;;5037938;28;20033;-56
2023/09/21 12:42:56;;;;;;;657.97;403.55;;;;;;;;;;5036870;28;20058;-59
2023/09/21 12:45:22;;;;;;;381.70;105.97;;;;;;;;;;5019809;28;20651;-59
2023/09/21 12:47:47;;;;;;;478.02;160.50;;;;;;;;;;5037423;28;20134;-58
2023/09/21 12:50:14;;;;;;;608.65;489.85;;;;;;;;;;5038231;28;20692;-58
2023/09/21 12:52:40;;;;;;;496.30;312.58;;;;;;;;;;5038563;28;20032;-58
2023/09/21 12:55:06;;;;;;;704.83;505.88;;;;;;;;;;5036684;28;20032;-58
2023/09/21 12:57:36;;;;;;;658.72;402.38;;;;;;;;;;5038098;28;20037;-58
2023/09/21 13:00:11;;;;;;;546.17;268.25;;;;;;;;;;5038179;28;20124;-60
2023/09/21 13:02:40;;;;;;;349.50;105.25;;;;;;;;;;5037991;28;20549;-59
2023/09/21 13:05:05;;;;;;;354.30;144.80;;;;;;;;;;5035825;28;20111;-58
2023/09/21 13:07:31;;;;;;;583.35;395.13;;;;;;;;;;5020757;28;20036;-58
2023/09/21 13:09:57;;;;;;;573.95;241.60;;;;;;;;;;5037279;28;20189;-59
2023/09/21 13:12:22;;;;;;;374.70;134.40;;;;;;;;;;5037545;28;20454;-58
2023/09/21 13:14:49;;;;;;;552.63;250.25;;;;;;;;;;5036876;28;20398;-59
2023/09/21 13:17:14;;;;;;;566.25;357.80;;;;;;;;;;5037884;28;20060;-58
2023/09/21 13:19:40;;;;;;;488.20;272.23;;;;;;;;;;5038067;28;20052;-59
2023/09/21 13:22:05;;;;;;;506.03;279.17;;;;;;;;;;5036923;28;20021;-60
2023/09/21 13:24:30;;;;;;;378.80;190.53;;;;;;;;;;5037465;28;20629;-59
2023/09/21 13:26:55;;;;;;;423.07;67.63;;;;;;;;;;5036225;28;20258;-59
2023/09/21 13:29:21;;;;;;;450.27;350.20;;;;;;;;;;5037969;28;20311;-58
2023/09/21 13:31:46;;;;;;;483.38;314.05;;;;;;;;;;5036077;28;20580;-59
2023/09/21 13:34:12;;;;;;;484.33;344.85;;;;;;;;;;5035556;28;20210;-57
2023/09/21 13:36:37;;;;;;;275.40;66.30;;;;;;;;;;5036672;28;20052;-59
2023/09/21 13:39:02;;;;;;;393.35;118.80;;;;;;;;;;5036875;28;20036;-56
2023/09/21 13:41:28;;;;;;;273.10;70.13;;;;;;;;;;5037045;28;20029;-56
2023/09/21 13:43:54;;;;;;;593.45;223.02;;;;;;;;;;5035277;28;20128;-57
2023/09/21 13:46:19;;;;;;;482.23;271.70;;;;;;;;;;5036475;28;20183;-57
2023/09/21 13:48:44;;;;;;;681.57;445.87;;;;;;;;;;5037589;28;20120;-58
2023/09/21 13:51:09;;;;;;;805.10;431.60;;;;;;;;;;5036342;28;20035;-57
2023/09/21 13:53:35;;;;;;;646.10;459.03;;;;;;;;;;5037424;28;20025;-62